Time;durP1;ratioP1;P1;durP2;ratioP2;P2;SDS_P1;SDS_P2;PMS_P1;PMS_P2;Temp;Humidity;BMP_temperature;BMP_pressure;BME280_temperature;BME280_humidity;BME280_pressure;Samples;Min_cycle;Max_cycle;Signal;HPM_P1;HPM_P2
2022/08/13 00:00:59;;;;;;;6.85;2.67;;;;;;;26.57;33.37;99366.78;4451319;32;33881;-60
2022/08/13 00:03:29;;;;;;;4.68;2.42;;;;;;;26.52;33.42;99364.72;4453745;32;32228;-60
2022/08/13 00:06:51;;;;;;;4.07;2.50;;;;;;;26.51;33.49;99367.69;4461102;32;33651;-60
2022/08/13 00:09:22;;;;;;;5.12;2.40;;;;;;;26.49;33.60;99370.66;4457762;32;34263;-60
2022/08/13 00:15:00;;;;;;;5.93;2.80;;;;;;;26.38;34.02;99361.22;4453970;32;31715;-61
2022/08/13 00:17:33;;;;;;;4.53;2.70;;;;;;;26.37;34.20;99365.03;4461537;32;31767;-61
2022/08/13 00:20:19;;;;;;;4.22;2.40;;;;;;;26.38;34.24;99352.16;4460431;32;34310;-60
2022/08/13 00:22:48;;;;;;;8.98;2.87;;;;;;;26.38;34.30;99352.16;4455995;32;32707;-60
2022/08/13 00:25:28;;;;;;;5.30;2.45;;;;;;;26.13;34.87;99344.84;4451891;32;34180;-61
2022/08/13 00:28:18;;;;;;;6.70;2.83;;;;;;;25.95;35.19;99342.88;4452641;32;34816;-61
2022/08/13 00:30:46;;;;;;;4.23;2.67;;;;;;;26.18;34.81;99352.38;4451078;32;33887;-61
2022/08/13 00:33:17;;;;;;;14.95;2.95;;;;;;;26.14;34.84;99343.75;4454866;32;34988;-60
2022/08/13 00:36:06;;;;;;;5.93;2.78;;;;;;;26.18;34.98;99346.88;4447043;32;32919;-61
2022/08/13 00:38:36;;;;;;;6.45;3.00;;;;;;;26.16;34.80;99341.62;4464799;32;33793;-60
2022/08/13 00:41:08;;;;;;;5.50;3.10;;;;;;;26.10;35.07;99339.78;4460990;32;32686;-60
2022/08/13 00:43:47;;;;;;;4.78;2.97;;;;;;;26.14;35.14;99337.44;4458764;32;35342;-61
2022/08/13 00:46:15;;;;;;;6.05;3.03;;;;;;;26.09;35.20;99337.25;4453612;32;32457;-60
2022/08/13 00:48:46;;;;;;;6.03;2.97;;;;;;;25.98;35.59;99336.09;4459062;32;33625;-60
2022/08/13 00:51:25;;;;;;;6.78;3.40;;;;;;;26.03;35.69;99333.50;4463296;32;33991;-61
2022/08/13 00:54:14;;;;;;;4.57;2.83;;;;;;;26.11;35.47;99333.22;4460625;32;35041;-60
2022/08/13 00:56:44;;;;;;;5.07;2.60;;;;;;;26.02;35.63;99331.84;4456227;32;35138;-61
2022/08/13 00:59:13;;;;;;;3.72;2.22;;;;;;;26.03;35.58;99330.75;4458270;32;33564;-61
2022/08/13 01:01:44;;;;;;;4.03;2.53;;;;;;;25.97;35.61;99331.66;4466977;32;33811;-61
2022/08/13 01:04:21;;;;;;;5.32;2.92;;;;;;;25.84;36.11;99324.41;4461196;32;34113;-61
2022/08/13 01:06:55;;;;;;;5.72;2.92;;;;;;;25.76;36.60;99327.41;4457590;32;34943;-61
2022/08/13 01:09:29;;;;;;;6.00;3.08;;;;;;;25.88;36.20;99327.56;4455206;32;33750;-61
2022/08/13 01:12:21;;;;;;;5.12;3.28;;;;;;;25.44;36.95;99324.69;4453149;32;35497;-60
2022/08/13 01:14:56;;;;;;;7.45;4.07;;;;;;;25.59;36.95;99320.81;4453561;32;34853;-61
2022/08/13 01:17:24;;;;;;;5.75;3.17;;;;;;;25.54;37.03;99316.81;4459970;32;33624;-61
2022/08/13 01:20:23;;;;;;;5.93;3.55;;;;;;;25.66;36.99;99316.09;4453997;32;33766;-60
2022/08/13 01:23:03;;;;;;;6.75;4.07;;;;;;;25.54;37.25;99318.72;4455244;32;35250;-60
2022/08/13 01:25:31;;;;;;;6.55;3.65;;;;;;;25.66;37.21;99311.47;4459899;32;35534;-60
2022/08/13 01:28:19;;;;;;;5.47;3.47;;;;;;;25.70;37.26;99307.19;4463233;32;33603;-61
2022/08/13 01:30:50;;;;;;;4.87;3.35;;;;;;;25.41;38.33;99311.44;4457471;32;33754;-61
2022/08/13 01:33:18;;;;;;;7.50;4.93;;;;;;;25.74;37.69;99305.69;4461770;32;33807;-61
2022/08/13 01:35:46;;;;;;;7.62;4.72;;;;;;;25.35;38.49;99303.25;4457185;32;34031;-61
2022/08/13 01:38:22;;;;;;;7.60;4.40;;;;;;;25.60;38.14;99304.12;4457477;32;32235;-61
2022/08/13 01:40:56;;;;;;;7.57;4.40;;;;;;;25.65;38.18;99303.44;4439846;32;33723;-61
2022/08/13 01:43:28;;;;;;;5.93;4.32;;;;;;;25.92;37.70;99301.34;4451784;32;34679;-60
2022/08/13 01:46:00;;;;;;;6.85;4.55;;;;;;;25.98;37.68;99305.94;4460529;32;34194;-60
2022/08/13 01:51:29;;;;;;;6.57;4.45;;;;;;;25.81;38.14;99310.31;4456913;32;33964;-61
2022/08/13 01:54:09;;;;;;;7.47;4.57;;;;;;;25.64;38.62;99310.84;4459117;32;34048;-60
2022/08/13 01:56:59;;;;;;;6.68;4.80;;;;;;;25.85;38.24;99304.16;4456463;32;34022;-61
2022/08/13 01:59:28;;;;;;;7.82;4.40;;;;;;;25.81;38.46;99302.06;4454433;32;33256;-61
2022/08/13 02:02:16;;;;;;;8.35;4.60;;;;;;;25.52;39.04;99305.25;4459900;32;33883;-60
2022/08/13 02:05:05;;;;;;;7.03;5.30;;;;;;;25.63;38.91;99297.38;4463082;32;33083;-60
2022/08/13 02:07:42;;;;;;;6.43;4.07;;;;;;;25.89;38.32;99294.41;4457829;32;34133;-61
2022/08/13 02:10:29;;;;;;;7.43;4.62;;;;;;;25.44;39.56;99297.28;4465737;32;33498;-61
2022/08/13 02:12:59;;;;;;;6.90;4.82;;;;;;;25.66;39.13;99295.00;4457203;32;35067;-61
2022/08/13 02:15:26;;;;;;;7.10;4.45;;;;;;;25.79;38.87;99294.06;4453785;32;33640;-61
2022/08/13 02:18:17;;;;;;;6.00;4.37;;;;;;;25.84;38.78;99296.16;4461387;32;34282;-61
2022/08/13 02:20:55;;;;;;;7.75;4.90;;;;;;;25.95;38.61;99290.78;4458098;32;33712;-61
2022/08/13 02:23:31;;;;;;;7.28;4.95;;;;;;;25.95;38.71;99293.53;4450931;32;33508;-62
2022/08/13 02:26:19;;;;;;;7.85;5.53;;;;;;;25.99;38.60;99291.16;4466345;32;33337;-61
2022/08/13 02:29:00;;;;;;;7.60;5.28;;;;;;;25.96;38.83;99295.19;4457316;32;34007;-64
2022/08/13 02:31:28;;;;;;;8.75;5.50;;;;;;;25.93;38.99;99300.28;4456836;32;33707;-60
2022/08/13 02:34:18;;;;;;;8.32;5.72;;;;;;;26.01;38.86;99297.28;4452322;32;33213;-61
2022/08/13 02:36:47;;;;;;;7.10;5.60;;;;;;;25.90;39.20;99295.25;4458498;32;33065;-61
2022/08/13 02:39:36;;;;;;;8.05;5.90;;;;;;;26.09;38.78;99287.91;4449962;32;33426;-61
2022/08/13 02:42:11;;;;;;;8.07;5.90;;;;;;;25.77;39.68;99291.53;4456673;32;34960;-61
2022/08/13 02:44:49;;;;;;;7.05;5.70;;;;;;;26.01;39.23;99289.88;4456389;32;33596;-61
2022/08/13 02:47:19;;;;;;;8.50;5.68;;;;;;;26.07;39.07;99290.88;4457616;32;34635;-63
2022/08/13 02:50:08;;;;;;;8.20;5.97;;;;;;;26.03;39.09;99289.63;4458046;32;34252;-63
2022/08/13 02:52:39;;;;;;;8.27;6.10;;;;;;;25.97;39.09;99285.91;4454717;32;32182;-63
2022/08/13 02:55:29;;;;;;;9.40;5.93;;;;;;;26.00;39.10;99284.59;4453096;32;32664;-63
2022/08/13 02:58:02;;;;;;;8.02;6.00;;;;;;;26.18;38.83;99283.81;4457247;32;33938;-62
2022/08/13 03:00:30;;;;;;;9.30;6.60;;;;;;;26.23;38.73;99282.06;4457285;32;34112;-61
2022/08/13 03:03:03;;;;;;;8.02;6.05;;;;;;;26.17;38.86;99274.75;4451275;32;34448;-62
2022/08/13 03:05:31;;;;;;;9.18;7.07;;;;;;;26.09;39.04;99283.25;4457967;32;33954;-62
2022/08/13 03:08:19;;;;;;;8.40;6.18;;;;;;;26.01;39.34;99283.56;4452667;32;35177;-62
2022/08/13 03:11:07;;;;;;;8.60;6.05;;;;;;;26.14;39.08;99288.06;4454986;32;32570;-62
2022/08/13 03:13:36;;;;;;;9.60;6.60;;;;;;;25.30;41.01;99282.84;4457009;32;33237;-62
2022/08/13 03:16:17;;;;;;;8.77;6.62;;;;;;;25.84;39.84;99275.06;4437428;32;33600;-62
2022/08/13 03:18:46;;;;;;;9.10;6.45;;;;;;;25.97;39.51;99274.09;4460256;32;32593;-62
2022/08/13 03:21:30;;;;;;;;;;;;;;;25.79;39.95;99272.13;4453704;32;34926;-62
2022/08/13 03:24:14;;;;;;;9.10;6.78;;;;;;;25.73;40.18;99281.25;4457084;32;33486;-62
2022/08/13 03:26:57;;;;;;;8.73;7.03;;;;;;;25.75;40.12;99277.22;4454203;32;32536;-62
2022/08/13 03:29:25;;;;;;;9.68;6.78;;;;;;;25.88;39.75;99275.47;4455740;32;33729;-61
2022/08/13 03:32:13;;;;;;;9.93;7.18;;;;;;;25.97;39.65;99268.59;4458013;32;32580;-62
2022/08/13 03:34:43;;;;;;;9.45;6.65;;;;;;;25.82;39.93;99268.97;4455351;32;33142;-62
2022/08/13 03:37:11;;;;;;;9.50;7.40;;;;;;;25.68;40.35;99270.97;4452337;32;32564;-61
2022/08/13 03:39:41;;;;;;;9.27;6.25;;;;;;;25.74;40.21;99269.22;4453351;32;32562;-61
2022/08/13 03:42:10;;;;;;;9.95;5.97;;;;;;;25.91;39.76;99266.78;4450346;32;35143;-62
2022/08/13 03:44:41;;;;;;;9.23;6.35;;;;;;;25.84;40.00;99263.25;4461888;32;34685;-61
2022/08/13 03:47:12;;;;;;;9.05;6.40;;;;;;;25.78;39.98;99263.06;4450028;32;33749;-61
2022/08/13 03:50:03;;;;;;;9.40;6.68;;;;;;;25.88;39.91;99264.50;4461319;32;35265;-61
2022/08/13 03:52:33;;;;;;;8.93;6.47;;;;;;;25.75;40.30;99255.31;4461216;32;32812;-61
2022/08/13 03:55:10;;;;;;;9.40;6.15;;;;;;;25.76;40.38;99264.34;4458867;32;33384;-61
2022/08/13 03:57:44;;;;;;;8.77;6.62;;;;;;;25.75;40.42;99260.78;4452462;32;33767;-62
2022/08/13 04:00:34;;;;;;;7.20;5.35;;;;;;;25.84;40.17;99263.25;4457828;32;35156;-62
2022/08/13 04:03:23;;;;;;;10.18;7.00;;;;;;;25.79;40.35;99261.16;4450844;32;33036;-62
2022/08/13 04:05:54;;;;;;;8.13;7.00;;;;;;;25.70;40.69;99257.03;4452485;32;35429;-61
2022/08/13 04:08:27;;;;;;;8.88;7.12;;;;;;;25.56;41.02;99264.53;4458529;32;35041;-62
2022/08/13 04:10:56;;;;;;;7.93;5.05;;;;;;;25.68;40.75;99261.87;4457958;32;34295;-62
2022/08/13 04:13:25;;;;;;;8.43;6.75;;;;;;;25.61;40.88;99263.84;4455723;32;35212;-62
2022/08/13 04:16:16;;;;;;;8.55;6.70;;;;;;;25.52;41.24;99260.53;4467435;32;34269;-63
2022/08/13 04:18:45;;;;;;;8.60;6.12;;;;;;;25.46;41.45;99265.03;4460882;32;35021;-63
2022/08/13 04:21:15;;;;;;;8.50;6.75;;;;;;;25.60;41.12;99259.44;4458884;32;34084;-63
2022/08/13 04:23:50;;;;;;;9.35;7.43;;;;;;;25.41;41.73;99261.28;4454131;32;34060;-63
2022/08/13 04:26:24;;;;;;;8.30;6.95;;;;;;;25.46;41.43;99253.25;4454147;32;34282;-63
2022/08/13 04:29:02;;;;;;;9.35;7.47;;;;;;;25.48;41.57;99260.16;4458694;32;33580;-63
2022/08/13 04:31:31;;;;;;;10.68;5.90;;;;;;;25.43;41.84;99253.69;4459605;32;34039;-63
2022/08/13 04:34:28;;;;;;;9.95;7.15;;;;;;;25.62;41.48;99249.94;4462931;32;34232;-63
2022/08/13 04:37:08;;;;;;;9.25;6.65;;;;;;;25.65;41.17;99248.63;4446457;32;32010;-62
2022/08/13 04:39:50;;;;;;;9.18;7.03;;;;;;;25.65;41.65;99259.59;4454565;32;34886;-62
2022/08/13 04:42:45;;;;;;;11.12;7.28;;;;;;;25.83;41.38;99256.09;4454187;32;33909;-62
2022/08/13 04:45:17;;;;;;;8.15;5.95;;;;;;;25.74;41.36;99250.03;4457426;32;34318;-61
2022/08/13 04:47:50;;;;;;;9.10;6.35;;;;;;;25.78;41.42;99240.31;4457362;32;33404;-62
2022/08/13 04:50:18;;;;;;;9.00;5.35;;;;;;;25.80;41.36;99243.66;4457809;32;34932;-62
2022/08/13 04:52:46;;;;;;;9.05;6.07;;;;;;;25.89;41.22;99249.72;4458056;32;35124;-62
2022/08/13 04:55:16;;;;;;;10.63;6.30;;;;;;;25.89;41.70;99246.97;4450774;32;33969;-63
2022/08/13 04:57:46;;;;;;;8.55;6.43;;;;;;;25.88;41.71;99250.78;4456826;32;33458;-63
2022/08/13 05:00:25;;;;;;;8.50;5.90;;;;;;;25.96;41.35;99254.06;4450102;32;33924;-63
2022/08/13 05:02:53;;;;;;;10.07;6.20;;;;;;;26.10;41.18;99254.78;4465177;32;34974;-64
2022/08/13 05:05:24;;;;;;;9.10;6.45;;;;;;;26.22;40.50;99258.41;4455691;32;32497;-64
2022/08/13 05:07:53;;;;;;;10.27;6.22;;;;;;;26.36;40.00;99248.16;4454453;32;33609;-63
2022/08/13 05:10:21;;;;;;;9.15;6.57;;;;;;;26.46;39.73;99256.66;4453368;32;33896;-64
2022/08/13 05:13:01;;;;;;;8.73;6.50;;;;;;;26.43;39.87;99256.28;4452034;32;32763;-63
2022/08/13 05:15:36;;;;;;;11.57;7.32;;;;;;;26.35;40.33;99257.44;4456392;32;33933;-64
2022/08/13 05:18:18;;;;;;;7.68;5.93;;;;;;;26.44;40.19;99250.56;4465818;32;33499;-62
2022/08/13 05:20:57;;;;;;;11.23;6.65;;;;;;;26.55;40.13;99261.87;4451182;32;32625;-63
2022/08/13 05:23:24;;;;;;;9.77;6.82;;;;;;;26.54;40.60;99258.28;4450058;32;32578;-63
2022/08/13 05:26:12;;;;;;;11.02;7.15;;;;;;;26.61;40.82;99258.19;4455178;32;35287;-62
2022/08/13 05:29:05;;;;;;;9.48;7.47;;;;;;;26.68;40.90;99259.81;4458068;32;32129;-62
2022/08/13 05:31:34;;;;;;;10.43;7.43;;;;;;;26.56;40.23;99252.59;4462839;32;32817;-62
2022/08/13 05:34:24;;;;;;;9.77;7.95;;;;;;;26.78;39.96;99263.91;4455517;32;32990;-62
2022/08/13 05:36:54;;;;;;;9.68;7.50;;;;;;;27.01;39.65;99265.91;4456313;32;34119;-62
2022/08/13 05:39:43;;;;;;;10.30;7.12;;;;;;;27.15;39.49;99267.41;4455124;32;33365;-62
2022/08/13 05:42:20;;;;;;;8.68;6.72;;;;;;;27.14;39.63;99268.50;4455523;32;33726;-62
2022/08/13 05:44:59;;;;;;;10.13;7.28;;;;;;;27.27;39.70;99256.47;4457796;32;32835;-62
2022/08/13 05:47:28;;;;;;;11.25;8.15;;;;;;;27.26;39.09;99261.13;4456906;32;32831;-62
2022/08/13 05:50:13;;;;;;;9.93;7.45;;;;;;;26.63;40.44;99250.59;4451124;32;33495;-62
2022/08/13 05:52:44;;;;;;;8.30;6.53;;;;;;;26.52;40.36;99252.22;4456910;32;34715;-62
2022/08/13 05:55:25;;;;;;;10.75;7.20;;;;;;;26.70;40.48;99257.66;4451712;32;35183;-62
2022/08/13 05:58:13;;;;;;;14.02;7.78;;;;;;;26.50;39.38;99251.59;4456820;32;34218;-61
2022/08/13 06:03:39;;;;;;;10.57;6.87;;;;;;;26.40;39.70;99251.28;4458892;32;32605;-62
2022/08/13 06:06:28;;;;;;;9.07;7.05;;;;;;;26.28;39.80;99256.66;4457696;32;32525;-62
2022/08/13 06:09:05;;;;;;;8.43;6.70;;;;;;;26.26;39.96;99258.81;4452373;32;34790;-62
2022/08/13 06:11:43;;;;;;;9.57;7.53;;;;;;;26.31;39.78;99256.22;4449279;32;33603;-62
2022/08/13 06:14:34;;;;;;;9.80;7.28;;;;;;;25.84;40.52;99260.50;4458581;32;33789;-61
2022/08/13 06:17:05;;;;;;;;;;;;;;;25.90;41.04;99249.47;4456696;32;32788;-62
2022/08/13 06:19:43;;;;;;;10.45;7.32;;;;;;;26.47;40.11;99260.25;4453064;32;35190;-62
2022/08/13 06:22:19;;;;;;;9.15;7.03;;;;;;;26.18;39.99;99248.16;4459519;32;32514;-62
2022/08/13 06:24:47;;;;;;;9.02;7.03;;;;;;;26.38;39.80;99250.66;4465762;32;34777;-62
2022/08/13 06:27:24;;;;;;;10.63;6.47;;;;;;;26.32;39.70;99259.78;4460452;32;34891;-61
2022/08/13 06:30:18;;;;;;;9.38;7.12;;;;;;;26.68;39.65;99261.72;4429006;32;32470;-61
2022/08/13 06:33:01;;;;;;;9.93;7.37;;;;;;;26.60;39.49;99271.09;4433756;32;33603;-61
2022/08/13 06:35:50;;;;;;;12.02;7.85;;;;;;;26.86;38.85;99288.28;4435106;32;33803;-62
2022/08/13 06:38:40;;;;;;;10.82;7.47;;;;;;;26.97;38.81;99293.00;4435219;32;35178;-62
2022/08/13 06:41:19;;;;;;;11.73;7.28;;;;;;;26.65;39.65;99301.44;4435257;32;34200;-61
2022/08/13 06:43:51;;;;;;;8.90;7.00;;;;;;;26.97;38.98;99305.88;4427100;32;33036;-62
2022/08/13 06:46:30;;;;;;;9.55;8.02;;;;;;;27.03;38.44;99300.31;4432251;32;33811;-62
2022/08/13 06:48:59;;;;;;;9.27;7.62;;;;;;;26.88;39.00;99297.97;4433629;32;33960;-62
2022/08/13 06:51:31;;;;;;;9.55;7.28;;;;;;;27.12;38.41;99281.56;4434665;32;34098;-62
2022/08/13 06:54:08;;;;;;;;;;;;;;;26.87;38.82;99284.47;4435554;32;34170;-62
2022/08/13 06:56:56;;;;;;;10.20;7.53;;;;;;;26.86;38.65;99285.53;4433819;32;33722;-62
2022/08/13 06:59:39;;;;;;;9.52;7.40;;;;;;;26.99;39.23;99288.09;4433613;32;33987;-61
2022/08/13 07:02:28;;;;;;;9.10;6.95;;;;;;;27.08;38.47;99297.69;4425854;32;34717;-61
2022/08/13 07:04:58;;;;;;;10.10;7.55;;;;;;;26.77;38.86;99292.41;4432679;32;32199;-62
2022/08/13 07:07:26;;;;;;;12.30;8.23;;;;;;;27.00;38.56;99294.41;4435768;32;34698;-61
2022/08/13 07:09:54;;;;;;;127.38;27.30;;;;;;;26.59;39.34;99285.88;4433908;32;34038;-62
2022/08/13 07:12:24;;;;;;;13.40;7.50;;;;;;;27.12;38.69;99287.91;4428347;32;34079;-62
2022/08/13 07:14:52;;;;;;;12.10;7.72;;;;;;;27.09;39.31;99276.56;4434662;32;32247;-62
2022/08/13 07:17:28;;;;;;;10.63;8.07;;;;;;;27.38;37.88;99274.88;4437016;32;34874;-61
2022/08/13 07:20:04;;;;;;;9.27;7.05;;;;;;;27.27;38.45;99284.78;4433653;32;33836;-62
2022/08/13 07:22:34;;;;;;;8.95;7.18;;;;;;;27.28;38.22;99280.09;4431672;32;33998;-62
2022/08/13 07:25:24;;;;;;;10.73;7.45;;;;;;;27.42;38.17;99281.59;4425153;32;33375;-61
2022/08/13 07:28:15;;;;;;;9.18;6.55;;;;;;;27.37;38.16;99278.69;4437340;32;33058;-61
2022/08/13 07:31:05;;;;;;;13.60;7.47;;;;;;;27.34;37.97;99285.50;4451890;32;35303;-61
2022/08/13 07:33:42;;;;;;;12.00;7.12;;;;;;;27.45;38.10;99278.38;4461360;32;33698;-61
2022/08/13 07:36:24;;;;;;;8.55;6.60;;;;;;;27.05;38.49;99281.69;4462542;32;32587;-62
2022/08/13 07:38:54;;;;;;;11.35;7.68;;;;;;;27.17;38.62;99281.75;4456002;32;33763;-61
2022/08/13 07:41:21;;;;;;;10.50;8.00;;;;;;;27.57;38.23;99283.87;4452027;32;34981;-62
2022/08/13 07:43:49;;;;;;;33.60;11.35;;;;;;;27.71;37.87;99284.50;4463998;32;32920;-62
2022/08/13 07:46:42;;;;;;;12.30;7.37;;;;;;;27.78;37.60;99285.25;4462836;32;32721;-62
2022/08/13 07:49:22;;;;;;;10.25;7.62;;;;;;;27.73;37.37;99276.84;4458948;32;34020;-62
2022/08/13 07:52:07;;;;;;;10.73;7.63;;;;;;;27.50;38.05;99280.41;4453190;32;34041;-62
2022/08/13 07:54:38;;;;;;;10.25;7.57;;;;;;;27.83;37.29;99266.97;4455806;32;35081;-62
2022/08/13 07:57:08;;;;;;;12.10;7.72;;;;;;;28.03;37.05;99263.84;4457834;32;34347;-61
2022/08/13 07:59:37;;;;;;;10.70;7.62;;;;;;;28.01;37.40;99260.50;4453534;32;32739;-62
2022/08/13 08:02:25;;;;;;;12.37;7.53;;;;;;;28.00;37.20;99266.25;4460483;32;33825;-62
2022/08/13 08:04:56;;;;;;;11.20;8.05;;;;;;;28.43;36.78;99260.34;4459330;32;33035;-62
2022/08/13 08:07:27;;;;;;;10.80;7.93;;;;;;;28.41;37.17;99261.66;4454432;32;32528;-61
2022/08/13 08:10:15;;;;;;;10.73;7.78;;;;;;;28.55;36.75;99258.41;4458855;32;35039;-62
2022/08/13 08:12:45;;;;;;;11.00;7.93;;;;;;;28.56;36.43;99262.00;4460880;32;35234;-62
2022/08/13 08:15:22;;;;;;;;;;;;;;;28.47;36.59;99258.78;4462614;32;35102;-61
2022/08/13 08:18:09;;;;;;;10.20;7.78;;;;;;;28.65;36.35;99257.78;4455976;32;33388;-61
2022/08/13 08:21:06;;;;;;;11.60;7.97;;;;;;;28.70;36.06;99257.91;4458624;32;33746;-62
2022/08/13 08:23:59;;;;;;;9.95;7.75;;;;;;;28.74;36.29;99255.50;4464136;32;33826;-61
2022/08/13 08:26:32;;;;;;;11.65;7.87;;;;;;;28.62;35.62;99258.28;4457242;32;34191;-61
2022/08/13 08:29:03;;;;;;;9.63;7.53;;;;;;;28.54;35.88;99251.25;4445820;32;32518;-62
2022/08/13 08:31:32;;;;;;;15.85;7.72;;;;;;;28.47;37.39;99250.53;4456890;32;33832;-62
2022/08/13 08:34:20;;;;;;;10.80;7.93;;;;;;;28.49;37.20;99251.12;4462655;32;34027;-62
2022/08/13 08:36:49;;;;;;;11.80;7.90;;;;;;;28.17;36.86;99247.09;4459482;32;34727;-63
2022/08/13 08:45:01;;;;;;;11.68;7.55;;;;;;;28.55;36.07;99247.41;4459194;32;34035;-62
2022/08/13 08:47:36;;;;;;;9.57;7.47;;;;;;;28.29;37.37;99246.00;4460310;32;35291;-62
2022/08/13 08:50:16;;;;;;;13.50;7.53;;;;;;;28.66;35.99;99240.16;4457727;32;33434;-62
2022/08/13 08:56:04;;;;;;;11.40;8.13;;;;;;;28.90;35.69;99229.06;4451477;32;34914;-62
2022/08/13 08:58:36;;;;;;;12.02;8.20;;;;;;;28.55;35.97;99232.81;4454783;32;34968;-62
2022/08/13 09:01:10;;;;;;;15.27;7.95;;;;;;;28.45;35.84;99229.84;4455065;32;35193;-62
2022/08/13 09:03:42;;;;;;;11.35;7.68;;;;;;;28.97;35.00;99229.75;4453392;32;32546;-62
2022/08/13 09:06:26;;;;;;;48.40;12.43;;;;;;;29.00;35.34;99237.53;4460564;32;34374;-62
2022/08/13 09:09:15;;;;;;;10.85;7.87;;;;;;;29.16;35.75;99230.41;4454524;32;33780;-62
2022/08/13 09:11:51;;;;;;;10.13;8.23;;;;;;;29.02;36.09;99229.88;4456384;32;33752;-62
2022/08/13 09:14:30;;;;;;;26.85;9.30;;;;;;;28.65;36.69;99224.75;4457008;32;33953;-62
2022/08/13 09:17:04;;;;;;;11.32;7.87;;;;;;;28.60;37.27;99226.53;4457730;32;35183;-62
2022/08/13 09:19:41;;;;;;;13.07;7.87;;;;;;;28.84;35.78;99233.66;4463907;32;34969;-62
2022/08/13 09:22:22;;;;;;;15.18;9.07;;;;;;;28.86;35.82;99217.72;4457560;32;33520;-62
2022/08/13 09:24:57;;;;;;;13.55;9.38;;;;;;;28.93;36.10;99221.16;4462493;32;33811;-62
2022/08/13 09:27:30;;;;;;;11.90;8.02;;;;;;;29.16;35.55;99219.38;4451956;32;34127;-62
2022/08/13 09:30:18;;;;;;;15.15;8.15;;;;;;;28.89;35.82;99208.09;4455288;32;33774;-62
2022/08/13 09:32:53;;;;;;;12.23;7.97;;;;;;;29.06;35.98;99211.78;4464537;32;33459;-62
2022/08/13 09:35:25;;;;;;;10.15;7.65;;;;;;;29.28;35.04;99209.13;4458869;32;33994;-62
2022/08/13 09:38:06;;;;;;;12.13;7.62;;;;;;;29.45;35.12;99209.94;4452930;32;33964;-63
2022/08/13 09:40:43;;;;;;;10.10;7.70;;;;;;;29.63;34.96;99208.91;4454696;32;32979;-63
2022/08/13 09:43:21;;;;;;;14.52;8.57;;;;;;;29.79;34.76;99203.59;4450072;32;34487;-63
2022/08/13 09:46:11;;;;;;;10.45;7.37;;;;;;;29.76;34.91;99204.09;4453411;32;37929;-62
2022/08/13 09:48:45;;;;;;;10.82;7.00;;;;;;;30.07;34.17;99202.63;4458525;32;35524;-63
2022/08/13 09:51:14;;;;;;;10.07;6.85;;;;;;;30.10;33.74;99196.59;4456954;32;33978;-63
2022/08/13 09:54:03;;;;;;;8.82;7.47;;;;;;;30.09;33.72;99190.25;4454864;32;34567;-63
2022/08/13 09:56:37;;;;;;;9.57;7.03;;;;;;;30.27;33.74;99193.78;4465027;32;34761;-62
2022/08/13 09:59:10;;;;;;;9.98;7.40;;;;;;;30.52;32.38;99194.09;4463667;32;33028;-62
2022/08/13 10:01:58;;;;;;;11.12;7.25;;;;;;;30.98;31.21;99183.59;4459043;32;34094;-63
2022/08/13 10:04:29;;;;;;;8.93;6.57;;;;;;;30.63;31.49;99184.03;4459669;32;34536;-63
2022/08/13 10:07:01;;;;;;;12.45;6.80;;;;;;;30.80;31.66;99184.78;4459286;32;35225;-63
2022/08/13 10:09:39;;;;;;;10.35;6.72;;;;;;;30.84;31.12;99191.44;4454550;32;32548;-63
2022/08/13 10:12:22;;;;;;;10.35;6.75;;;;;;;30.94;31.34;99195.41;4456814;32;32751;-63
2022/08/13 10:14:50;;;;;;;8.50;7.00;;;;;;;31.14;31.17;99189.22;4452592;32;33408;-62
2022/08/13 10:17:25;;;;;;;10.73;7.28;;;;;;;31.27;30.73;99189.66;4449989;32;32191;-63
2022/08/13 10:20:34;;;;;;;10.25;7.40;;;;;;;30.84;31.54;99193.37;4461224;32;35089;-64
2022/08/13 10:23:08;;;;;;;9.23;7.18;;;;;;;31.25;30.76;99179.94;4459356;32;34192;-63
2022/08/13 10:25:40;;;;;;;10.57;7.12;;;;;;;31.33;30.56;99182.22;4463254;32;32520;-63
2022/08/13 10:28:18;;;;;;;9.27;6.90;;;;;;;31.39;30.02;99170.13;4458456;32;34944;-62
2022/08/13 10:31:10;;;;;;;10.80;7.15;;;;;;;30.96;31.23;99179.41;4456175;32;33853;-63
2022/08/13 10:33:58;;;;;;;9.23;6.35;;;;;;;30.40;31.26;99177.69;4464970;32;35237;-63
2022/08/13 10:36:27;;;;;;;11.52;6.93;;;;;;;31.09;30.09;99176.22;4463360;32;33389;-63
2022/08/13 10:39:04;;;;;;;9.85;7.03;;;;;;;31.34;30.13;99172.88;4448531;32;32243;-63
2022/08/13 10:41:42;;;;;;;12.32;6.43;;;;;;;30.45;31.28;99176.06;4465338;32;34022;-64
2022/08/13 10:44:29;;;;;;;9.60;6.95;;;;;;;31.00;30.34;99166.72;4453327;32;32832;-63
2022/08/13 10:46:59;;;;;;;9.20;6.93;;;;;;;31.32;30.05;99162.03;4456980;32;32953;-63
2022/08/13 10:49:29;;;;;;;9.43;6.40;;;;;;;31.53;29.41;99165.81;4458785;32;33867;-63
2022/08/13 10:52:00;;;;;;;9.30;6.85;;;;;;;30.84;30.48;99176.78;4457338;32;34841;-63
2022/08/13 10:54:34;;;;;;;8.52;6.37;;;;;;;31.20;30.21;99177.94;4454595;32;34087;-63
2022/08/13 10:57:07;;;;;;;13.25;9.13;;;;;;;30.72;31.26;99168.63;4462841;32;33007;-63
2022/08/13 10:59:43;;;;;;;7.15;5.75;;;;;;;31.14;30.75;99167.97;4449039;32;33784;-63
2022/08/13 11:02:11;;;;;;;15.10;6.60;;;;;;;31.10;30.65;99172.34;4457550;32;32671;-63
2022/08/13 11:04:47;;;;;;;7.50;6.15;;;;;;;31.31;29.31;99163.13;4456882;32;32942;-63
2022/08/13 11:07:20;;;;;;;7.75;6.25;;;;;;;31.16;29.53;99164.94;4446296;32;31860;-63
2022/08/13 11:09:49;;;;;;;8.45;5.32;;;;;;;31.19;29.41;99162.47;4454655;32;34547;-63
2022/08/13 11:12:18;;;;;;;7.93;5.82;;;;;;;31.06;29.47;99160.16;4459833;32;32507;-63
2022/08/13 11:14:49;;;;;;;8.57;5.65;;;;;;;30.90;29.78;99156.41;4447920;32;33304;-64
2022/08/13 11:17:20;;;;;;;9.13;6.32;;;;;;;30.96;29.62;99154.53;4463234;32;33651;-63
2022/08/13 11:20:13;;;;;;;8.93;5.62;;;;;;;30.79;29.02;99149.13;4456943;32;33838;-63
2022/08/13 11:22:47;;;;;;;8.52;6.05;;;;;;;30.92;29.07;99148.72;4461162;32;32729;-63
2022/08/13 11:25:17;;;;;;;8.25;5.82;;;;;;;30.68;29.24;99144.56;4450595;32;33864;-63
2022/08/13 11:28:13;;;;;;;8.48;5.57;;;;;;;30.62;29.37;99138.16;4449922;32;33852;-63
2022/08/13 11:30:48;;;;;;;11.12;5.60;;;;;;;29.98;30.80;99148.97;4453073;32;34654;-64
2022/08/13 11:33:25;;;;;;;9.50;5.90;;;;;;;30.03;30.92;99146.28;4451662;32;33449;-63
2022/08/13 11:36:12;;;;;;;9.25;5.95;;;;;;;30.04;30.73;99139.66;4439294;32;33841;-63
2022/08/13 11:38:42;;;;;;;7.65;5.68;;;;;;;29.62;31.44;99146.53;4461906;32;33542;-63
2022/08/13 11:41:10;;;;;;;8.02;5.90;;;;;;;30.30;30.08;99144.44;4457697;32;33706;-63
2022/08/13 11:43:48;;;;;;;7.20;5.40;;;;;;;30.45;30.06;99143.78;4462522;32;35040;-64
2022/08/13 11:46:25;;;;;;;8.25;6.32;;;;;;;30.39;29.50;99134.59;4459577;32;33961;-63
2022/08/13 11:48:53;;;;;;;6.93;5.10;;;;;;;30.33;29.76;99137.56;4454190;32;33762;-64
2022/08/13 11:51:41;;;;;;;9.10;5.30;;;;;;;30.51;29.53;99137.22;4450601;32;32607;-64
2022/08/13 11:54:20;;;;;;;8.02;5.68;;;;;;;30.98;29.06;99138.50;4455435;32;33685;-64
2022/08/13 11:57:01;;;;;;;6.78;4.80;;;;;;;31.10;28.85;99130.88;4451069;32;34271;-64
2022/08/13 11:59:29;;;;;;;6.50;4.70;;;;;;;30.78;28.83;99128.94;4451310;32;34816;-62
2022/08/13 12:02:08;;;;;;;7.00;4.90;;;;;;;31.09;28.62;99129.22;4459735;32;34739;-65
2022/08/13 12:04:43;;;;;;;9.15;5.55;;;;;;;30.62;28.57;99129.88;4449359;32;34133;-64
2022/08/13 12:07:25;;;;;;;6.68;5.00;;;;;;;30.21;29.60;99134.09;4451469;32;34330;-64
2022/08/13 12:09:54;;;;;;;7.07;4.70;;;;;;;30.88;28.34;99136.50;4447553;32;34146;-64
2022/08/13 12:12:26;;;;;;;9.02;5.50;;;;;;;30.63;29.43;99134.31;4453274;32;32895;-63
2022/08/13 12:14:58;;;;;;;6.90;4.70;;;;;;;30.60;29.30;99124.63;4459000;32;33879;-63
2022/08/13 12:17:27;;;;;;;6.40;4.60;;;;;;;30.92;28.31;99126.59;4455704;32;32910;-63
2022/08/13 12:20:24;;;;;;;8.75;5.47;;;;;;;31.04;28.18;99121.75;4456183;32;33207;-64
2022/08/13 12:22:58;;;;;;;8.27;5.10;;;;;;;31.01;28.15;99118.66;4456619;32;33621;-64
2022/08/13 12:25:28;;;;;;;6.65;4.62;;;;;;;30.59;29.14;99120.19;4450028;32;33856;-63
2022/08/13 12:28:09;;;;;;;6.45;4.70;;;;;;;30.43;29.02;99118.34;4453833;32;33976;-64
2022/08/13 12:30:44;;;;;;;8.23;4.90;;;;;;;30.79;28.93;99111.28;4458825;32;32341;-64
2022/08/13 12:33:15;;;;;;;6.93;5.07;;;;;;;30.92;28.66;99106.44;4459012;32;33949;-63
2022/08/13 12:35:44;;;;;;;6.97;5.40;;;;;;;31.27;27.82;99106.72;4457018;32;33918;-64